createdAt,value
2024-04-09T00:00:15.384Z,0.20
2024-04-09T00:02:42.835Z,0.30
2024-04-09T00:05:10.427Z,0.25
2024-04-09T00:07:39.511Z,0.32
2024-04-09T00:10:08.170Z,0.22
2024-04-09T00:12:35.678Z,0.20
2024-04-09T00:15:09.119Z,0.40
2024-04-09T00:17:58.419Z,0.10
2024-04-09T00:20:26.482Z,0.73
2024-04-09T00:22:56.990Z,0.47
2024-04-09T00:25:24.321Z,0.68
2024-04-09T00:27:53.930Z,0.60
2024-04-09T00:30:22.902Z,0.30
2024-04-09T00:32:53.125Z,0.40
2024-04-09T00:35:22.564Z,0.43
2024-04-09T00:37:52.939Z,0.15
2024-04-09T00:40:21.928Z,0.52
2024-04-09T00:42:51.048Z,0.52
2024-04-09T00:45:19.598Z,0.32
2024-04-09T00:50:21.069Z,0.22
2024-04-09T00:52:50.082Z,0.30
2024-04-09T00:55:17.765Z,0.30
2024-04-09T00:57:50.017Z,0.30
2024-04-09T01:00:17.488Z,0.35
2024-04-09T01:02:45.313Z,0.30
2024-04-09T01:05:12.724Z,0.22
2024-04-09T01:07:43.828Z,0.45
2024-04-09T01:10:11.800Z,0.22
2024-04-09T01:12:39.229Z,0.20
2024-04-09T01:15:07.062Z,0.20
2024-04-09T01:17:35.925Z,0.50
2024-04-09T01:20:04.098Z,0.40
2024-04-09T01:22:34.121Z,0.57
2024-04-09T01:25:03.690Z,0.32
2024-04-09T01:27:33.360Z,0.52
2024-04-09T01:30:01.866Z,0.45
2024-04-09T01:34:56.581Z,0.20
2024-04-09T01:37:26.257Z,0.40
2024-04-09T01:39:56.276Z,0.40
2024-04-09T01:42:23.853Z,0.60
2024-04-09T01:44:51.317Z,0.47
2024-04-09T01:47:18.726Z,0.65
2024-04-09T01:49:46.645Z,0.55
2024-04-09T01:52:13.941Z,0.50
2024-04-09T01:54:44.457Z,0.40
2024-04-09T01:57:17.715Z,0.98
2024-04-09T01:59:45.308Z,0.50
2024-04-09T02:02:14.723Z,0.30
2024-04-09T02:04:42.115Z,0.80
2024-04-09T02:07:09.727Z,0.55
2024-04-09T02:09:37.118Z,0.40
2024-04-09T02:12:05.179Z,0.47
2024-04-09T02:14:35.345Z,0.30
2024-04-09T02:17:03.088Z,0.32
2024-04-09T02:19:31.006Z,0.32
2024-04-09T02:21:58.311Z,0.60
2024-04-09T02:24:26.504Z,0.45
2024-04-09T02:26:54.312Z,0.60
2024-04-09T02:29:23.064Z,0.40
2024-04-09T02:31:53.470Z,0.50
2024-04-09T02:34:25.018Z,0.43
2024-04-09T02:36:52.855Z,0.47
2024-04-09T02:39:20.870Z,0.45
2024-04-09T02:41:48.360Z,0.40
2024-04-09T02:44:15.669Z,0.60
2024-04-09T02:46:42.956Z,0.52
2024-04-09T02:49:13.042Z,0.40
2024-04-09T02:51:41.226Z,0.30
2024-04-09T02:54:08.935Z,0.25
2024-04-09T02:56:36.379Z,0.38
2024-04-09T02:59:04.692Z,0.30
2024-04-09T03:01:32.452Z,0.55
2024-04-09T03:04:01.364Z,0.30
2024-04-09T03:06:31.693Z,0.35
2024-04-09T03:08:59.771Z,0.22
2024-04-09T03:11:27.979Z,0.63
2024-04-09T03:13:55.509Z,0.60
2024-04-09T03:16:24.006Z,0.55
2024-04-09T03:21:19.411Z,0.20
2024-04-09T03:23:49.506Z,0.63
2024-04-09T03:26:16.954Z,0.52
2024-04-09T03:28:44.372Z,0.30
2024-04-09T03:31:11.748Z,0.52
2024-04-09T03:33:39.410Z,0.57
2024-04-09T03:36:09.397Z,0.38
2024-04-09T03:38:36.949Z,0.40
2024-04-09T03:41:08.090Z,0.75
2024-04-09T03:43:35.934Z,0.60
2024-04-09T03:46:05.836Z,0.50
2024-04-09T03:48:33.392Z,0.45
2024-04-09T03:51:00.867Z,0.35
2024-04-09T03:53:28.235Z,0.52
2024-04-09T03:55:56.454Z,0.35
2024-04-09T03:58:29.732Z,0.80
2024-04-09T04:00:58.440Z,1.25
2024-04-09T04:03:26.753Z,0.88
2024-04-09T04:05:54.631Z,0.55
2024-04-09T04:08:23.193Z,0.50
2024-04-09T04:10:54.380Z,0.60
2024-04-09T04:13:27.249Z,0.43
2024-04-09T04:15:59.458Z,0.65
2024-04-09T04:18:27.075Z,0.25
2024-04-09T04:20:54.739Z,0.73
2024-04-09T04:23:22.239Z,0.68
2024-04-09T04:26:01.412Z,0.45
2024-04-09T04:28:31.611Z,0.32
2024-04-09T04:30:59.253Z,0.40
2024-04-09T04:33:26.902Z,0.80
2024-04-09T04:35:54.672Z,0.60
2024-04-09T04:38:22.180Z,0.30
2024-04-09T04:40:49.750Z,0.38
2024-04-09T04:43:17.539Z,0.70
2024-04-09T04:45:48.604Z,0.65
2024-04-09T04:48:16.438Z,0.65
2024-04-09T04:50:43.822Z,0.93
2024-04-09T04:53:11.275Z,0.70
2024-04-09T04:55:38.940Z,0.82
2024-04-09T04:58:06.919Z,0.90
2024-04-09T05:00:36.649Z,1.15
2024-04-09T05:03:06.957Z,1.05
2024-04-09T05:05:35.448Z,1.00
2024-04-09T05:08:03.040Z,1.08
2024-04-09T05:10:30.531Z,1.20
2024-04-09T05:12:57.931Z,1.80
2024-04-09T05:15:25.710Z,1.88
2024-04-09T05:17:53.496Z,2.70
2024-04-09T05:20:28.386Z,2.38
2024-04-09T05:22:58.189Z,2.72
2024-04-09T05:25:28.649Z,3.35
2024-04-09T05:27:56.414Z,2.15
2024-04-09T05:30:24.227Z,1.88
2024-04-09T05:32:51.866Z,2.17
2024-04-09T05:35:21.665Z,2.03
2024-04-09T05:37:51.919Z,1.98
2024-04-09T05:40:19.575Z,1.77
2024-04-09T05:42:50.133Z,2.00
2024-04-09T05:45:20.742Z,1.77
2024-04-09T05:47:48.441Z,2.45
2024-04-09T05:50:16.096Z,2.85
2024-04-09T05:52:43.438Z,2.22
2024-04-09T05:55:14.192Z,2.85
2024-04-09T05:57:42.592Z,2.47
2024-04-09T06:00:15.968Z,2.90
2024-04-09T06:02:45.612Z,2.63
2024-04-09T06:05:13.161Z,2.67
2024-04-09T06:07:40.444Z,2.08
2024-04-09T06:10:08.071Z,2.47
2024-04-09T06:12:38.295Z,2.15
2024-04-09T06:15:07.070Z,1.85
2024-04-09T06:17:34.588Z,1.90
2024-04-09T06:20:02.156Z,2.40
2024-04-09T06:22:29.555Z,2.10
2024-04-09T06:24:57.967Z,2.47
2024-04-09T06:27:25.637Z,2.47
2024-04-09T06:29:56.563Z,2.40
2024-04-09T06:32:24.104Z,2.60
2024-04-09T06:34:52.093Z,1.92
2024-04-09T06:37:19.575Z,2.63
2024-04-09T06:39:48.124Z,2.28
2024-04-09T06:42:15.997Z,2.05
2024-04-09T06:44:43.364Z,1.65
2024-04-09T06:47:13.632Z,2.03
2024-04-09T06:49:44.538Z,2.20
2024-04-09T06:52:12.227Z,2.08
2024-04-09T06:54:39.877Z,2.58
2024-04-09T06:57:07.515Z,2.17
2024-04-09T06:59:34.889Z,2.15
2024-04-09T07:02:03.080Z,1.52
2024-04-09T07:04:33.337Z,2.30
2024-04-09T07:07:01.478Z,2.03
2024-04-09T07:09:29.061Z,1.85
2024-04-09T07:11:56.432Z,1.70
2024-04-09T07:14:23.892Z,1.70
2024-04-09T07:16:51.427Z,1.90
2024-04-09T07:19:18.801Z,1.58
2024-04-09T07:21:50.384Z,1.27
2024-04-09T07:24:17.878Z,1.30
2024-04-09T07:26:45.352Z,1.40
2024-04-09T07:29:14.483Z,1.52
2024-04-09T07:31:42.823Z,1.25
2024-04-09T07:34:10.755Z,2.30
2024-04-09T07:36:39.075Z,1.10
2024-04-09T07:39:09.554Z,1.23
2024-04-09T07:41:37.051Z,1.33
2024-04-09T07:44:04.650Z,1.13
2024-04-09T07:46:31.963Z,1.42
2024-04-09T07:49:01.663Z,1.85
2024-04-09T07:51:30.094Z,1.35
2024-04-09T07:53:57.565Z,1.42
2024-04-09T07:56:27.997Z,1.35
2024-04-09T07:58:55.477Z,1.65
2024-04-09T08:01:22.963Z,0.93
2024-04-09T08:03:50.512Z,1.30
2024-04-09T08:06:18.462Z,0.90
2024-04-09T08:08:48.542Z,1.13
2024-04-09T08:11:17.155Z,0.95
2024-04-09T08:13:47.348Z,1.10
2024-04-09T08:16:15.177Z,1.15
2024-04-09T08:18:43.153Z,1.20
2024-04-09T08:21:11.620Z,1.20
2024-04-09T08:23:39.471Z,1.08
2024-04-09T08:26:07.036Z,1.15
2024-04-09T08:28:34.574Z,1.23
2024-04-09T08:31:07.034Z,0.93
2024-04-09T08:33:36.014Z,1.08
2024-04-09T08:36:03.979Z,1.48
2024-04-09T08:38:32.452Z,0.82
2024-04-09T08:40:59.964Z,0.82
2024-04-09T08:43:28.515Z,0.80
2024-04-09T08:45:58.528Z,0.90
2024-04-09T08:48:29.728Z,0.85
2024-04-09T08:50:58.785Z,0.80
2024-04-09T08:53:30.413Z,0.70
2024-04-09T08:55:57.880Z,0.70
2024-04-09T08:58:25.222Z,0.77
2024-04-09T09:00:52.692Z,0.73
2024-04-09T09:03:20.265Z,0.80
2024-04-09T09:06:01.825Z,1.00
2024-04-09T09:08:40.304Z,0.98
2024-04-09T09:11:08.600Z,1.00
2024-04-09T09:13:36.204Z,0.63
2024-04-09T09:16:07.549Z,0.63
2024-04-09T09:18:35.318Z,0.98
2024-04-09T09:21:06.685Z,0.90
2024-04-09T09:23:35.296Z,0.82
2024-04-09T09:26:03.813Z,0.63
2024-04-09T09:28:31.249Z,1.33
2024-04-09T09:33:33.523Z,0.90
2024-04-09T09:36:01.187Z,0.93
2024-04-09T09:38:31.788Z,0.88
2024-04-09T09:41:00.234Z,0.57
2024-04-09T09:43:28.131Z,0.80
2024-04-09T09:45:56.377Z,1.27
2024-04-09T09:48:27.717Z,0.63
2024-04-09T09:50:55.712Z,0.60
2024-04-09T09:53:23.795Z,0.73
2024-04-09T09:55:57.038Z,0.52
2024-04-09T09:58:27.136Z,0.80
2024-04-09T10:00:55.031Z,0.80
2024-04-09T10:03:23.147Z,0.90
2024-04-09T10:05:50.878Z,0.57
2024-04-09T10:08:21.746Z,0.68
2024-04-09T10:10:50.593Z,0.50
2024-04-09T10:13:25.577Z,0.82
2024-04-09T10:15:57.365Z,0.50
2024-04-09T10:18:36.294Z,0.40
2024-04-09T10:21:05.339Z,0.40
2024-04-09T10:23:36.673Z,0.50
2024-04-09T10:26:07.065Z,0.50
2024-04-09T10:28:37.921Z,0.35
2024-04-09T10:31:06.393Z,0.30
2024-04-09T10:33:35.284Z,0.20
2024-04-09T10:36:07.170Z,0.30
2024-04-09T10:38:35.267Z,0.55
2024-04-09T10:41:02.803Z,0.50
2024-04-09T10:43:30.500Z,0.20
2024-04-09T10:46:08.328Z,0.40
2024-04-09T10:48:42.105Z,0.30
2024-04-09T10:51:10.273Z,0.30
2024-04-09T10:53:38.120Z,0.40
2024-04-09T10:56:06.104Z,0.10
2024-04-09T10:58:38.631Z,0.38
2024-04-09T11:01:14.179Z,0.30
2024-04-09T11:03:42.088Z,0.10
2024-04-09T11:06:09.662Z,0.30
2024-04-09T11:08:37.869Z,0.15
2024-04-09T11:11:05.476Z,0.08
2024-04-09T11:13:33.406Z,0.10
2024-04-09T11:16:03.955Z,0.20
2024-04-09T11:18:34.529Z,0.13
2024-04-09T11:21:03.011Z,0.20
2024-04-09T11:23:33.558Z,0.13
2024-04-09T11:26:03.385Z,0.20
2024-04-09T11:28:32.525Z,0.22
2024-04-09T11:31:01.571Z,0.03
2024-04-09T11:33:29.880Z,0.13
2024-04-09T11:36:05.213Z,0.10
2024-04-09T11:38:37.746Z,0.03
2024-04-09T11:41:05.025Z,0.10
2024-04-09T11:43:32.551Z,0.10
2024-04-09T11:46:00.542Z,0.10
2024-04-09T11:48:28.149Z,0.10
2024-04-09T11:50:55.659Z,0.40
2024-04-09T11:53:25.867Z,0.20
2024-04-09T11:55:55.112Z,0.10
2024-04-09T11:58:22.725Z,0.10
2024-04-09T12:00:50.262Z,0.00
2024-04-09T12:03:17.958Z,0.20
2024-04-09T12:05:45.761Z,0.10
2024-04-09T12:08:13.221Z,0.30
2024-04-09T12:10:43.260Z,0.35
2024-04-09T12:13:10.724Z,0.90
2024-04-09T12:15:38.068Z,0.17
2024-04-09T12:18:05.909Z,0.20
2024-04-09T12:20:33.540Z,0.10
2024-04-09T12:23:00.955Z,0.10
2024-04-09T12:25:29.155Z,0.00
2024-04-09T12:27:59.244Z,0.28
2024-04-09T12:30:26.852Z,0.17
2024-04-09T12:32:54.422Z,0.25
2024-04-09T12:35:23.442Z,0.10
2024-04-09T12:37:51.442Z,0.05
2024-04-09T12:40:18.910Z,0.13
2024-04-09T12:42:46.431Z,0.20
2024-04-09T12:45:17.255Z,0.30
2024-04-09T12:47:44.873Z,0.20
2024-04-09T12:50:16.107Z,0.63
2024-04-09T12:52:43.558Z,0.22
2024-04-09T12:55:11.910Z,0.20
2024-04-09T12:57:39.414Z,0.32
2024-04-09T13:00:30.782Z,0.20
2024-04-09T13:03:02.216Z,0.25
2024-04-09T13:05:29.916Z,0.10
2024-04-09T13:07:57.389Z,0.10
2024-04-09T13:10:24.778Z,0.10
2024-04-09T13:12:52.299Z,0.20
2024-04-09T13:17:50.439Z,0.30
2024-04-09T13:20:20.486Z,0.30
2024-04-09T13:22:47.885Z,0.20
2024-04-09T13:25:15.280Z,0.10
2024-04-09T13:27:42.620Z,0.20
2024-04-09T13:30:10.688Z,0.28
2024-04-09T13:32:38.266Z,0.20
2024-04-09T13:35:07.018Z,0.43
2024-04-09T13:37:38.780Z,0.28
2024-04-09T13:40:07.174Z,0.20
2024-04-09T13:42:41.057Z,0.17
2024-04-09T13:45:08.866Z,0.30
2024-04-09T13:47:36.352Z,0.10
2024-04-09T13:50:06.985Z,0.20
2024-04-09T13:52:37.171Z,0.10
2024-04-09T13:55:08.503Z,0.20
2024-04-09T13:57:35.958Z,0.10
2024-04-09T14:00:09.011Z,0.10
2024-04-09T14:02:43.893Z,0.28
2024-04-09T14:05:12.201Z,0.10
2024-04-09T14:07:42.642Z,0.40
2024-04-09T14:10:10.252Z,0.15
2024-04-09T14:12:37.874Z,0.17
2024-04-09T14:15:10.459Z,0.20
2024-04-09T14:17:38.977Z,0.10
2024-04-09T14:20:10.548Z,0.20
2024-04-09T14:22:38.404Z,0.30
2024-04-09T14:25:09.914Z,0.20
2024-04-09T14:27:38.895Z,0.20
2024-04-09T14:30:07.571Z,0.10
2024-04-09T14:32:35.160Z,0.20
2024-04-09T14:35:02.684Z,0.10
2024-04-09T14:37:30.335Z,0.17
2024-04-09T14:39:57.688Z,0.20
2024-04-09T14:42:27.736Z,0.17
2024-04-09T14:44:55.080Z,0.43
2024-04-09T14:47:22.585Z,0.10
2024-04-09T14:49:51.273Z,0.20
2024-04-09T14:52:18.713Z,0.20
2024-04-09T14:54:50.033Z,0.20
2024-04-09T14:57:18.250Z,0.17
2024-04-09T14:59:49.294Z,0.20
2024-04-09T15:02:16.734Z,0.10
2024-04-09T15:04:44.302Z,0.32
2024-04-09T15:07:11.710Z,0.10
2024-04-09T15:09:39.810Z,0.20
2024-04-09T15:12:07.997Z,0.17
2024-04-09T15:14:35.806Z,0.10
2024-04-09T15:17:05.888Z,0.00
2024-04-09T15:19:34.578Z,0.10
2024-04-09T15:22:02.174Z,0.10
2024-04-09T15:24:29.533Z,0.20
2024-04-09T15:26:57.697Z,0.10
2024-04-09T15:29:25.989Z,0.10
2024-04-09T15:31:53.357Z,0.10
2024-04-09T15:34:23.486Z,0.17
2024-04-09T15:36:51.776Z,0.13
2024-04-09T15:39:19.065Z,0.13
2024-04-09T15:41:46.468Z,0.30
2024-04-09T15:44:13.811Z,0.22
2024-04-09T15:46:41.310Z,0.22
2024-04-09T15:49:08.851Z,0.13
2024-04-09T15:51:38.911Z,0.30
2024-04-09T15:54:06.567Z,0.20
2024-04-09T15:56:34.393Z,0.20
2024-04-09T15:59:04.446Z,0.10
2024-04-09T16:01:33.771Z,0.10
2024-04-09T16:04:01.176Z,0.20
2024-04-09T16:06:29.528Z,0.30
2024-04-09T16:08:59.464Z,0.35
2024-04-09T16:11:27.037Z,0.25
2024-04-09T16:13:54.735Z,0.47
2024-04-09T16:16:22.072Z,0.70
2024-04-09T16:18:49.776Z,1.90
2024-04-09T16:21:17.170Z,1.00
2024-04-09T16:23:44.429Z,0.68
2024-04-09T16:28:43.820Z,0.10
2024-04-09T16:31:11.243Z,0.35
2024-04-09T16:36:07.601Z,0.13
2024-04-09T16:38:35.396Z,0.47
2024-04-09T16:41:04.047Z,0.40
2024-04-09T16:43:34.176Z,0.40
2024-04-09T16:46:01.581Z,0.40
2024-04-09T16:48:29.023Z,0.60
2024-04-09T16:50:58.655Z,0.60
2024-04-09T16:53:26.240Z,0.60
2024-04-09T16:55:59.035Z,0.90
2024-04-09T16:58:26.489Z,0.65
2024-04-09T17:01:15.040Z,0.38
2024-04-09T17:03:42.482Z,0.60
2024-04-09T17:06:09.929Z,0.50
2024-04-09T17:08:37.425Z,1.08
2024-04-09T17:11:07.335Z,3.83
2024-04-09T17:13:36.573Z,2.30
2024-04-09T17:16:07.970Z,6.82
2024-04-09T17:18:35.664Z,9.60
2024-04-09T17:21:03.402Z,6.45
2024-04-09T17:23:31.197Z,2.97
2024-04-09T17:28:29.716Z,11.95
2024-04-09T17:30:57.597Z,4.85
2024-04-09T17:35:54.984Z,2.10
2024-04-09T17:38:22.525Z,1.95
2024-04-09T17:40:50.022Z,1.88
2024-04-09T17:43:17.335Z,1.88
2024-04-09T17:45:45.743Z,2.05
2024-04-09T17:48:13.476Z,2.42
2024-04-09T17:50:43.802Z,3.63
2024-04-09T17:53:11.219Z,4.00
2024-04-09T17:55:39.885Z,2.90
2024-04-09T17:58:08.176Z,5.43
2024-04-09T18:00:35.704Z,4.85
2024-04-09T18:03:23.318Z,2.85
2024-04-09T18:05:54.638Z,2.22
2024-04-09T18:08:22.285Z,2.63
2024-04-09T18:10:49.971Z,1.98
2024-04-09T18:13:17.411Z,2.28
2024-04-09T18:15:47.384Z,2.15
2024-04-09T18:18:14.750Z,1.50
2024-04-09T18:20:42.142Z,1.15
2024-04-09T18:23:12.763Z,1.63
2024-04-09T18:25:40.248Z,1.17
2024-04-09T18:28:08.931Z,0.93
2024-04-09T18:30:36.270Z,1.10
2024-04-09T18:33:05.877Z,1.42
2024-04-09T18:35:36.188Z,1.02
2024-04-09T18:38:03.826Z,0.80
2024-04-09T18:40:33.940Z,0.75
2024-04-09T18:43:01.366Z,0.80
2024-04-09T18:45:28.705Z,0.80
2024-04-09T18:47:56.252Z,0.60
2024-04-09T18:50:23.733Z,0.70
2024-04-09T18:52:51.236Z,0.40
2024-04-09T18:55:18.507Z,0.70
2024-04-09T18:57:48.506Z,0.80
2024-04-09T19:00:17.415Z,0.80
2024-04-09T19:02:44.797Z,0.60
2024-04-09T19:05:12.105Z,0.55
2024-04-09T19:07:39.450Z,0.63
2024-04-09T19:10:07.793Z,0.70
2024-04-09T19:12:35.107Z,0.63
2024-04-09T19:15:05.568Z,0.88
2024-04-09T19:17:33.211Z,0.70
2024-04-09T19:20:00.780Z,1.27
2024-04-09T19:22:28.338Z,0.57
2024-04-09T19:24:55.707Z,0.75
2024-04-09T19:27:23.152Z,0.68
2024-04-09T19:29:50.627Z,0.88
2024-04-09T19:32:21.047Z,0.82
2024-04-09T19:34:48.768Z,0.77
2024-04-09T19:37:17.203Z,0.93
2024-04-09T19:39:44.566Z,0.60
2024-04-09T19:42:12.467Z,0.68
2024-04-09T19:44:39.761Z,0.68
2024-04-09T19:47:07.203Z,0.60
2024-04-09T19:49:37.274Z,0.57
2024-04-09T19:52:05.266Z,0.70
2024-04-09T19:57:00.230Z,0.50
2024-04-09T19:59:28.778Z,0.30
2024-04-09T20:01:56.379Z,0.82
2024-04-09T20:04:26.310Z,0.68
2024-04-09T20:06:57.307Z,0.50
2024-04-09T20:09:27.514Z,0.50
2024-04-09T20:11:58.172Z,0.63
2024-04-09T20:14:26.051Z,0.52
2024-04-09T20:16:54.353Z,0.68
2024-04-09T20:19:21.956Z,0.80
2024-04-09T20:21:52.554Z,0.52
2024-04-09T20:24:22.645Z,0.55
2024-04-09T20:26:50.372Z,0.75
2024-04-09T20:29:18.174Z,0.63
2024-04-09T20:31:47.383Z,0.60
2024-04-09T20:34:15.295Z,0.80
2024-04-09T20:36:48.306Z,0.82
2024-04-09T20:39:20.725Z,0.50
2024-04-09T20:41:51.015Z,0.63
2024-04-09T20:44:18.514Z,0.38
2024-04-09T20:46:46.259Z,0.60
2024-04-09T20:49:13.941Z,0.85
2024-04-09T20:51:41.498Z,0.63
2024-04-09T20:54:08.919Z,0.40
2024-04-09T20:56:36.354Z,0.50
2024-04-09T20:59:06.526Z,0.88
2024-04-09T21:01:35.444Z,0.40
2024-04-09T21:04:03.847Z,0.50
2024-04-09T21:06:32.631Z,0.80
2024-04-09T21:09:00.266Z,0.73
2024-04-09T21:11:27.681Z,0.68
2024-04-09T21:13:55.223Z,0.52
2024-04-09T21:16:26.014Z,0.43
2024-04-09T21:18:53.704Z,0.65
2024-04-09T21:21:21.825Z,0.50
2024-04-09T21:23:49.412Z,0.45
2024-04-09T21:26:16.739Z,0.60
2024-04-09T21:28:44.795Z,0.45
2024-04-09T21:31:12.177Z,0.40
2024-04-09T21:33:42.372Z,0.57
2024-04-09T21:36:10.275Z,0.47
2024-04-09T21:38:37.743Z,0.47
2024-04-09T21:41:05.633Z,0.55
2024-04-09T21:43:33.339Z,0.60
2024-04-09T21:46:00.706Z,0.68
2024-04-09T21:48:29.199Z,0.63
2024-04-09T21:50:59.454Z,0.82
2024-04-09T21:53:26.944Z,0.75
2024-04-09T21:55:54.657Z,0.30
2024-04-09T21:58:22.140Z,0.50
2024-04-09T22:00:56.545Z,0.82
2024-04-09T22:03:24.236Z,0.70
2024-04-09T22:05:53.776Z,0.75
2024-04-09T22:08:24.803Z,0.40
2024-04-09T22:10:52.673Z,0.57
2024-04-09T22:13:19.996Z,0.75
2024-04-09T22:15:47.308Z,0.82
2024-04-09T22:18:15.013Z,0.52
2024-04-09T22:20:43.083Z,0.47
2024-04-09T22:23:15.766Z,0.50
2024-04-09T22:25:47.358Z,0.80
2024-04-09T22:28:14.826Z,0.80
2024-04-09T22:30:42.519Z,1.23
2024-04-09T22:33:10.147Z,0.90
2024-04-09T22:35:37.947Z,0.77
2024-04-09T22:38:05.530Z,0.90
2024-04-09T22:40:33.537Z,0.75
2024-04-09T22:43:04.009Z,0.40
2024-04-09T22:45:31.406Z,0.40
2024-04-09T22:47:58.848Z,0.57
2024-04-09T22:50:26.308Z,0.50
2024-04-09T22:52:53.874Z,0.40
2024-04-09T22:55:21.393Z,0.60
2024-04-09T22:57:48.735Z,0.55
2024-04-09T23:00:19.098Z,0.63
2024-04-09T23:02:46.518Z,0.47
2024-04-09T23:05:14.075Z,0.40
2024-04-09T23:07:41.532Z,0.65
2024-04-09T23:10:08.976Z,0.40
2024-04-09T23:12:36.829Z,0.90
2024-04-09T23:15:04.872Z,0.55
2024-04-09T23:17:35.023Z,0.50
2024-04-09T23:20:03.096Z,0.75
2024-04-09T23:22:30.455Z,0.52
2024-04-09T23:24:57.789Z,0.22
2024-04-09T23:27:25.216Z,0.68
2024-04-09T23:29:52.515Z,0.50
2024-04-09T23:32:20.406Z,0.40
2024-04-09T23:34:50.508Z,0.30
2024-04-09T23:37:18.855Z,0.40
2024-04-09T23:39:46.245Z,0.38
2024-04-09T23:42:13.605Z,0.75
2024-04-09T23:44:41.030Z,0.50
2024-04-09T23:47:08.619Z,0.45
2024-04-09T23:49:36.151Z,0.22
2024-04-09T23:52:06.238Z,0.60
2024-04-09T23:54:33.842Z,0.63
2024-04-09T23:57:01.213Z,0.47
2024-04-09T23:59:28.727Z,0.45
